John Paul Eckstein — WDH6438 — position and weather

sailwx.info

Track history (hours):
 
Tides and Currents Weather Stations Pressure Air Temp Water Temp Dewpoint Dewpoint Depression Visibility Wind Speed Wind Dir Waves Ship Positions

John Paul Eckstein

Owner: Marquette Transportation Co. LLC, Paducah, KY. More information available from US FCC via Universal Licensing System and Coast Guard Vessel Documentation Center.

Last reported at 2018-Jun-12 04:56 UTC. Time now 2018-Jun-25 00:18 UTC.
Position N 33°17' W 091°09'.
Warning: this ship's position is 12 days out of date.

Length 51 m; draft 3.2 m.

Type: Towing. MMSI: 367637960.

Date/timePositionNaut miles runAvg speedWind from/ knotsBaromVisibWave heightAir tempDewpointWater temp
2018-Jun-12 04:56N 33°17' W 091°09'2 3.8
2018-Jun-12 04:28N 33°15' W 091°08'2 3.2
2018-Jun-12 04:00N 33°14' W 091°07'2 3.8
2018-Jun-12 03:24N 33°12' W 091°05'27 2.8
2018-Jun-11 17:42N 32°45' W 091°09'1 3.7
2018-Jun-11 17:30N 32°44' W 091°09'3 2.6
2018-Jun-11 16:13N 32°44' W 091°05'1 3.1
2018-Jun-11 15:56N 32°44' W 091°04'4 3.5
2018-Jun-11 14:45N 32°40' W 091°07'1 3.9
2018-Jun-11 14:26N 32°40' W 091°08'2 3.9
2018-Jun-11 13:57N 32°38' W 091°09'2 4.6
2018-Jun-11 13:30N 32°36' W 091°08'2 4.1
2018-Jun-11 13:01N 32°35' W 091°07'2 3.8
2018-Jun-11 12:30N 32°33' W 091°06'3 4.1
2018-Jun-11 11:51N 32°30' W 091°07'2 4.5
2018-Jun-11 11:30N 32°29' W 091°07'2 4.2
2018-Jun-11 11:00N 32°27' W 091°05'2 4.2
2018-Jun-11 10:30N 32°26' W 091°03'2 4.0
2018-Jun-11 10:00N 32°26' W 091°01'2 3.5
2018-Jun-11 09:30N 32°24' W 090°59'2 3.5
2018-Jun-11 09:00N 32°22' W 091°00'1 2.8
2018-Jun-11 08:30N 32°21' W 090°59'2 4.0
2018-Jun-11 08:01N 32°21' W 090°57'2 3.7
2018-Jun-11 07:30N 32°20' W 090°55'2 3.2
2018-Jun-11 07:01N 32°19' W 090°54'2 3.3
2018-Jun-11 06:30N 32°18' W 090°56'2 4.0
2018-Jun-11 06:01N 32°16' W 090°57'2 3.8
2018-Jun-11 05:31N 32°15' W 090°59'2 4.0
2018-Jun-11 05:00N 32°13' W 090°59'2 3.8
2018-Jun-11 04:30N 32°11' W 090°60'2 3.8
2018-Jun-11 04:00N 32°09' W 091°00'2 3.8
2018-Jun-11 03:30N 32°07' W 091°01'2 3.6
2018-Jun-11 03:00N 32°08' W 091°03'2 3.2
2018-Jun-11 02:22N 32°08' W 091°05'1 3.8
2018-Jun-11 02:00N 32°07' W 091°07'3 4.2
2018-Jun-11 01:20N 32°05' W 091°04'2 4.1
2018-Jun-11 00:56N 32°03' W 091°04'  
2018-Jun-02 19:09N 31°46' W 091°22'310.4
2018-Jun-02 18:51N 31°49' W 091°21'10 8.6
2018-Jun-02 17:42N 31°55' W 091°12'210.9
2018-Jun-02 17:29N 31°57' W 091°11'5 8.8
2018-Jun-02 16:56N 31°59' W 091°06'410.4
2018-Jun-02 16:30N 32°03' W 091°03'5 9.2
2018-Jun-02 16:00N 32°07' W 091°06'2 3.3
2018-Jun-02 15:30N 32°08' W 091°05'4 8.1
2018-Jun-02 15:00N 32°09' W 091°00'510.4
2018-Jun-02 14:30N 32°14' W 090°59'5 9.6
2018-Jun-02 14:00N 32°18' W 090°56'2 4.9
2018-Jun-02 13:30N 32°19' W 090°54'1 2.7
2018-Jun-02 13:00N 32°21' W 090°55'4 8.3
2018-Jun-02 12:30N 32°21' W 090°60'2 4.8
2018-Jun-02 12:00N 32°24' W 090°60'4 8.6
2018-Jun-02 11:30N 32°26' W 091°03'5 9.4
2018-Jun-02 11:00N 32°30' W 091°07'5 9.3
2018-Jun-02 10:30N 32°35' W 091°07'5 9.2
2018-Jun-02 10:00N 32°39' W 091°09'6 9.0
2018-Jun-02 09:19N 32°43' W 091°03'  
Track history (hours):
 
Tides and Currents Weather Stations Pressure Air Temp Water Temp Dewpoint Dewpoint Depression Visibility Wind Speed Wind Dir Waves Ship Positions

John Paul Eckstein

Owner: Marquette Transportation Co. LLC, Paducah, KY. More information available from US FCC via Universal Licensing System and Coast Guard Vessel Documentation Center.

Last reported at 2018-Jun-12 04:56 UTC. Time now 2018-Jun-25 00:18 UTC.
Position N 33°17' W 091°09'.
Warning: this ship's position is 12 days out of date.

Length 51 m; draft 3.2 m.

Type: Towing. MMSI: 367637960.

Date/timePositionNaut miles runAvg speedWind from/ knotsBaromVisibWave heightAir tempDewpointWater temp
2018-Jun-12 04:56N 33°17' W 091°09'2 3.8
2018-Jun-12 04:28N 33°15' W 091°08'2 3.2
2018-Jun-12 04:00N 33°14' W 091°07'2 3.8
2018-Jun-12 03:24N 33°12' W 091°05'27 2.8
2018-Jun-11 17:42N 32°45' W 091°09'1 3.7
2018-Jun-11 17:30N 32°44' W 091°09'3 2.6
2018-Jun-11 16:13N 32°44' W 091°05'1 3.1
2018-Jun-11 15:56N 32°44' W 091°04'4 3.5
2018-Jun-11 14:45N 32°40' W 091°07'1 3.9
2018-Jun-11 14:26N 32°40' W 091°08'2 3.9
2018-Jun-11 13:57N 32°38' W 091°09'2 4.6
2018-Jun-11 13:30N 32°36' W 091°08'2 4.1
2018-Jun-11 13:01N 32°35' W 091°07'2 3.8
2018-Jun-11 12:30N 32°33' W 091°06'3 4.1
2018-Jun-11 11:51N 32°30' W 091°07'2 4.5
2018-Jun-11 11:30N 32°29' W 091°07'2 4.2
2018-Jun-11 11:00N 32°27' W 091°05'2 4.2
2018-Jun-11 10:30N 32°26' W 091°03'2 4.0
2018-Jun-11 10:00N 32°26' W 091°01'2 3.5
2018-Jun-11 09:30N 32°24' W 090°59'2 3.5
2018-Jun-11 09:00N 32°22' W 091°00'1 2.8
2018-Jun-11 08:30N 32°21' W 090°59'2 4.0
2018-Jun-11 08:01N 32°21' W 090°57'2 3.7
2018-Jun-11 07:30N 32°20' W 090°55'2 3.2
2018-Jun-11 07:01N 32°19' W 090°54'2 3.3
2018-Jun-11 06:30N 32°18' W 090°56'2 4.0
2018-Jun-11 06:01N 32°16' W 090°57'2 3.8
2018-Jun-11 05:31N 32°15' W 090°59'2 4.0
2018-Jun-11 05:00N 32°13' W 090°59'2 3.8
2018-Jun-11 04:30N 32°11' W 090°60'2 3.8
2018-Jun-11 04:00N 32°09' W 091°00'2 3.8
2018-Jun-11 03:30N 32°07' W 091°01'2 3.6
2018-Jun-11 03:00N 32°08' W 091°03'2 3.2
2018-Jun-11 02:22N 32°08' W 091°05'1 3.8
2018-Jun-11 02:00N 32°07' W 091°07'3 4.2
2018-Jun-11 01:20N 32°05' W 091°04'2 4.1
2018-Jun-11 00:56N 32°03' W 091°04'  
2018-Jun-02 19:09N 31°46' W 091°22'310.4
2018-Jun-02 18:51N 31°49' W 091°21'10 8.6
2018-Jun-02 17:42N 31°55' W 091°12'210.9
2018-Jun-02 17:29N 31°57' W 091°11'5 8.8
2018-Jun-02 16:56N 31°59' W 091°06'410.4
2018-Jun-02 16:30N 32°03' W 091°03'5 9.2
2018-Jun-02 16:00N 32°07' W 091°06'2 3.3
2018-Jun-02 15:30N 32°08' W 091°05'4 8.1
2018-Jun-02 15:00N 32°09' W 091°00'510.4
2018-Jun-02 14:30N 32°14' W 090°59'5 9.6
2018-Jun-02 14:00N 32°18' W 090°56'2 4.9
2018-Jun-02 13:30N 32°19' W 090°54'1 2.7
2018-Jun-02 13:00N 32°21' W 090°55'4 8.3
2018-Jun-02 12:30N 32°21' W 090°60'2 4.8
2018-Jun-02 12:00N 32°24' W 090°60'4 8.6
2018-Jun-02 11:30N 32°26' W 091°03'5 9.4
2018-Jun-02 11:00N 32°30' W 091°07'5 9.3
2018-Jun-02 10:30N 32°35' W 091°07'5 9.2
2018-Jun-02 10:00N 32°39' W 091°09'6 9.0
2018-Jun-02 09:19N 32°43' W 091°03'  

Dump ship's entire track history